createdAt,value
2023-02-11T00:01:39.870Z,101400.16
2023-02-11T00:04:08.934Z,101399.34
2023-02-11T00:06:37.802Z,101391.72
2023-02-11T00:09:07.131Z,101390.88
2023-02-11T00:11:36.058Z,101391.72
2023-02-11T00:14:08.032Z,101383.28
2023-02-11T00:16:38.238Z,101377.41
2023-02-11T00:19:07.407Z,101379.06
2023-02-11T00:21:36.319Z,101374.84
2023-02-11T00:24:05.559Z,101374.84
2023-02-11T00:26:36.726Z,101373.16
2023-02-11T00:29:06.391Z,101379.94
2023-02-11T00:31:35.857Z,101373.16
2023-02-11T00:34:08.752Z,101382.47
2023-02-11T00:36:37.932Z,101384.13
2023-02-11T00:39:08.219Z,101379.94
2023-02-11T00:41:37.619Z,101385.00
2023-02-11T00:44:06.563Z,101389.19
2023-02-11T00:46:35.323Z,101381.59
2023-02-11T00:49:04.106Z,101374.03
2023-02-11T00:51:34.110Z,101378.22
2023-02-11T00:54:05.212Z,101378.22
2023-02-11T00:56:34.108Z,101380.75
2023-02-11T00:59:02.762Z,101390.03
2023-02-11T01:01:31.638Z,101388.31
2023-02-11T01:04:00.321Z,101384.13
2023-02-11T01:06:28.910Z,101388.31
2023-02-11T01:08:58.959Z,101388.31
2023-02-11T01:11:27.596Z,101380.72
2023-02-11T01:13:56.247Z,101368.97
2023-02-11T01:16:24.914Z,101377.38
2023-02-11T01:18:55.260Z,101379.06
2023-02-11T01:21:23.978Z,101380.72
2023-02-11T01:23:53.347Z,101372.28
2023-02-11T01:26:23.477Z,101367.22
2023-02-11T01:28:52.238Z,101365.53
2023-02-11T01:31:21.458Z,101358.78
2023-02-11T01:33:50.282Z,101354.53
2023-02-11T01:36:19.034Z,101349.47
2023-02-11T01:38:47.676Z,101351.97
2023-02-11T01:41:16.517Z,101346.94
2023-02-11T01:43:49.798Z,101346.94
2023-02-11T01:46:35.386Z,101339.34
2023-02-11T01:49:09.531Z,101340.19
2023-02-11T01:51:41.766Z,101336.81
2023-02-11T01:54:30.630Z,101345.25
2023-02-11T01:57:19.015Z,101334.25
2023-02-11T01:59:57.500Z,101323.31
2023-02-11T02:02:34.107Z,101319.06
2023-02-11T02:05:11.125Z,101313.13
2023-02-11T02:07:47.542Z,101310.59
2023-02-11T02:10:20.809Z,101311.47
2023-02-11T02:12:49.600Z,101300.47
2023-02-11T02:15:26.708Z,101284.44
2023-02-11T02:18:16.765Z,101275.97
2023-02-11T02:21:31.604Z,101292.03
2023-02-11T02:24:33.297Z,101302.16
2023-02-11T02:27:35.339Z,101302.16
2023-02-11T02:30:40.597Z,101287.81
2023-02-11T02:33:39.911Z,101286.97
2023-02-11T02:36:16.282Z,101275.16
2023-02-11T02:38:54.249Z,101270.09
2023-02-11T02:41:26.404Z,101259.97
2023-02-11T02:43:55.768Z,101262.47
2023-02-11T02:46:28.560Z,101267.56
2023-02-11T02:48:59.587Z,101266.69
2023-02-11T02:52:01.326Z,101262.50
2023-02-11T02:54:56.846Z,101256.56
2023-02-11T02:57:40.394Z,101250.63
2023-02-11T03:00:33.277Z,101258.25
2023-02-11T03:03:18.949Z,101248.13
2023-02-11T03:05:58.176Z,101248.94
2023-02-11T03:08:33.569Z,101253.97
2023-02-11T03:11:03.076Z,101259.88
2023-02-11T03:13:35.808Z,101268.28
2023-02-11T03:16:10.552Z,101263.19
2023-02-11T03:18:42.410Z,101262.34
2023-02-11T03:21:14.095Z,101264.84
2023-02-11T03:23:48.610Z,101267.38
2023-02-11T03:26:25.714Z,101279.22
2023-02-11T03:29:00.872Z,101285.97
2023-02-11T03:31:35.731Z,101284.25
2023-02-11T03:34:09.879Z,101284.25
2023-02-11T03:36:47.290Z,101277.47
2023-02-11T03:39:22.494Z,101266.50
2023-02-11T03:41:52.769Z,101268.19
2023-02-11T03:44:24.500Z,101265.59
2023-02-11T03:46:55.430Z,101261.41
2023-02-11T03:49:26.491Z,101255.44
2023-02-11T03:51:58.083Z,101253.75
2023-02-11T03:54:31.966Z,101257.09
2023-02-11T03:57:02.773Z,101259.63
2023-02-11T03:59:31.559Z,101257.09
2023-02-11T04:02:00.398Z,101257.91
2023-02-11T04:04:29.193Z,101266.31
2023-02-11T04:06:59.183Z,101262.94
2023-02-11T04:09:27.811Z,101253.66
2023-02-11T04:11:56.446Z,101238.47
2023-02-11T04:14:25.159Z,101228.31
2023-02-11T04:16:53.740Z,101219.00
2023-02-11T04:19:22.423Z,101221.50
2023-02-11T04:21:50.990Z,101223.19
2023-02-11T04:24:21.011Z,101211.38
2023-02-11T04:26:49.695Z,101205.44
2023-02-11T04:29:19.052Z,101206.31
2023-02-11T04:31:47.974Z,101202.97
2023-02-11T04:34:17.455Z,101194.50
2023-02-11T04:36:46.092Z,101197.91
2023-02-11T04:39:14.843Z,101196.22
2023-02-11T04:41:44.851Z,101199.59
2023-02-11T04:44:13.580Z,101207.22
2023-02-11T04:46:42.374Z,101216.53
2023-02-11T04:49:14.190Z,101215.69
2023-02-11T04:51:43.202Z,101214.84
2023-02-11T04:54:12.503Z,101212.34
2023-02-11T04:56:41.426Z,101222.47
2023-02-11T04:59:11.861Z,101225.03
2023-02-11T05:01:40.854Z,101219.97
2023-02-11T05:04:09.586Z,101228.41
2023-02-11T05:06:40.484Z,101225.88
2023-02-11T05:09:09.310Z,101236.88
2023-02-11T05:11:39.435Z,101241.94
2023-02-11T05:14:10.045Z,101241.09
2023-02-11T05:16:38.681Z,101247.81
2023-02-11T05:19:07.395Z,101241.09
2023-02-11T05:21:36.096Z,101229.25
2023-02-11T05:24:05.445Z,101234.34
2023-02-11T05:26:34.204Z,101225.84
2023-02-11T05:29:02.895Z,101219.97
2023-02-11T05:31:33.371Z,101211.50
2023-02-11T05:34:03.969Z,101207.28
2023-02-11T05:36:33.566Z,101201.34
2023-02-11T05:39:02.369Z,101208.06
2023-02-11T05:41:31.269Z,101198.78
2023-02-11T05:43:59.866Z,101198.81
2023-02-11T05:46:28.610Z,101196.22
2023-02-11T05:48:58.618Z,101202.13
2023-02-11T05:51:27.294Z,101218.16
2023-02-11T05:53:55.947Z,101219.88
2023-02-11T05:56:24.609Z,101212.28
2023-02-11T05:58:53.186Z,101205.53
2023-02-11T06:01:21.821Z,101202.16
2023-02-11T06:03:51.465Z,101208.06
2023-02-11T06:06:21.575Z,101200.47
2023-02-11T06:08:50.200Z,101201.34
2023-02-11T06:11:20.312Z,101203.88
2023-02-11T06:13:49.039Z,101203.00
2023-02-11T06:16:17.740Z,101190.38
2023-02-11T06:18:46.366Z,101192.91
2023-02-11T06:21:15.031Z,101192.91
2023-02-11T06:23:45.136Z,101197.97
2023-02-11T06:26:20.427Z,101200.50
2023-02-11T06:28:49.461Z,101206.41
2023-02-11T06:31:18.918Z,101225.03
2023-02-11T06:33:47.606Z,101224.19
2023-02-11T06:36:19.754Z,101212.38
2023-02-11T06:38:50.735Z,101209.84
2023-02-11T06:41:21.221Z,101206.47
2023-02-11T06:43:50.403Z,101209.84
2023-02-11T06:46:19.014Z,101220.00
2023-02-11T06:48:47.824Z,101208.19
2023-02-11T06:51:17.147Z,101211.59
2023-02-11T06:53:49.195Z,101214.94
2023-02-11T06:56:23.992Z,101226.72
2023-02-11T06:58:55.740Z,101226.72
2023-02-11T07:01:26.171Z,101219.13
2023-02-11T07:03:55.271Z,101218.31
2023-02-11T07:06:28.181Z,101219.16
2023-02-11T07:08:58.439Z,101217.47
2023-02-11T07:11:29.712Z,101214.91
2023-02-11T07:14:03.352Z,101204.81
2023-02-11T07:16:33.125Z,101213.28
2023-02-11T07:19:01.859Z,101218.34
2023-02-11T07:21:30.532Z,101223.38
2023-02-11T07:24:00.592Z,101230.09
2023-02-11T07:26:29.277Z,101225.88
2023-02-11T07:28:57.929Z,101225.03
2023-02-11T07:31:29.724Z,101226.69
2023-02-11T07:34:00.916Z,101211.50
2023-02-11T07:36:31.985Z,101225.03
2023-02-11T07:39:02.330Z,101225.03
2023-02-11T07:41:30.986Z,101231.75
2023-02-11T07:43:59.734Z,101238.53
2023-02-11T07:46:29.460Z,101245.28
2023-02-11T07:48:58.228Z,101241.88
2023-02-11T07:51:29.622Z,101247.78
2023-02-11T07:54:01.986Z,101239.34
2023-02-11T07:56:31.504Z,101232.56
2023-02-11T07:59:03.539Z,101245.19
2023-02-11T08:01:32.726Z,101242.66
2023-02-11T08:04:03.242Z,101236.69
2023-02-11T08:06:34.358Z,101231.63
2023-02-11T08:09:09.466Z,101241.72
2023-02-11T08:11:38.202Z,101233.22
2023-02-11T08:14:06.810Z,101233.22
2023-02-11T08:16:38.874Z,101241.59
2023-02-11T08:19:10.011Z,101239.84
2023-02-11T08:21:39.400Z,101237.28
2023-02-11T08:24:10.818Z,101240.59
2023-02-11T08:26:39.785Z,101234.59
2023-02-11T08:29:12.214Z,101236.25
2023-02-11T08:31:43.174Z,101231.94
2023-02-11T08:34:14.265Z,101236.94
2023-02-11T08:36:44.961Z,101245.31
2023-02-11T08:39:20.357Z,101241.03
2023-02-11T08:41:51.737Z,101237.59
2023-02-11T08:44:21.461Z,101236.72
2023-02-11T08:46:50.557Z,101229.88
2023-02-11T08:49:19.613Z,101234.91
2023-02-11T08:51:48.937Z,101249.25
2023-02-11T08:54:19.457Z,101261.84
2023-02-11T08:56:52.452Z,101250.78
2023-02-11T08:59:21.077Z,101254.13
2023-02-11T09:01:49.830Z,101255.78
2023-02-11T09:04:18.517Z,101261.59
2023-02-11T09:06:47.767Z,101263.25
2023-02-11T09:09:18.324Z,101253.06
2023-02-11T09:11:48.240Z,101250.47
2023-02-11T09:14:21.319Z,101257.97
2023-02-11T09:16:50.900Z,101266.38
2023-02-11T09:19:20.716Z,101272.22
2023-02-11T09:21:49.340Z,101273.00
2023-02-11T09:24:19.623Z,101275.47
2023-02-11T09:26:49.649Z,101273.69
2023-02-11T09:29:18.433Z,101272.78
2023-02-11T09:31:47.117Z,101278.59
2023-02-11T09:34:16.020Z,101275.13
2023-02-11T09:36:44.712Z,101263.19
2023-02-11T09:39:17.048Z,101259.75
2023-02-11T09:42:27.037Z,101258.03
2023-02-11T09:44:55.819Z,101261.38
2023-02-11T09:47:30.331Z,101268.09
2023-02-11T09:50:04.293Z,101264.69
2023-02-11T09:52:40.787Z,101262.09
2023-02-11T09:55:20.531Z,101268.81
2023-02-11T09:57:50.765Z,101265.44
2023-02-11T10:00:23.957Z,101268.78
2023-02-11T10:03:22.995Z,101268.78
2023-02-11T10:06:26.783Z,101264.56
2023-02-11T10:09:08.654Z,101267.06
2023-02-11T10:11:47.903Z,101266.19
2023-02-11T10:14:43.408Z,101275.47
2023-02-11T10:17:24.061Z,101280.50
2023-02-11T10:20:16.737Z,101268.63
2023-02-11T10:22:50.472Z,101272.81
2023-02-11T10:25:24.595Z,101276.19
2023-02-11T10:27:56.197Z,101266.84
2023-02-11T10:30:33.602Z,101268.47
2023-02-11T10:33:12.132Z,101270.09
2023-02-11T10:35:42.538Z,101268.34
2023-02-11T10:38:12.037Z,101273.41
2023-02-11T10:40:41.715Z,101267.44
2023-02-11T10:43:14.923Z,101264.84
2023-02-11T10:45:48.938Z,101272.41
2023-02-11T10:48:42.387Z,101271.53
2023-02-11T10:51:20.503Z,101267.25
2023-02-11T10:53:51.475Z,101275.69
2023-02-11T10:56:28.291Z,101279.88
2023-02-11T10:59:01.969Z,101276.44
2023-02-11T11:01:48.647Z,101265.41
2023-02-11T11:04:37.003Z,101268.81
2023-02-11T11:07:17.711Z,101273.91
2023-02-11T11:09:51.304Z,101272.97
2023-02-11T11:12:36.641Z,101279.75
2023-02-11T11:15:19.993Z,101275.50
2023-02-11T11:17:50.592Z,101271.25
2023-02-11T11:20:28.564Z,101282.22
2023-02-11T11:23:17.251Z,101279.66
2023-02-11T11:25:59.235Z,101295.78
2023-02-11T11:28:30.668Z,101294.91
2023-02-11T11:31:01.158Z,101300.78
2023-02-11T11:33:35.867Z,101299.06
2023-02-11T11:36:09.477Z,101301.56
2023-02-11T11:38:45.172Z,101303.22
2023-02-11T11:41:32.483Z,101302.31
2023-02-11T11:44:22.108Z,101299.78
2023-02-11T11:47:08.717Z,101290.44
2023-02-11T11:49:45.325Z,101277.69
2023-02-11T11:52:34.464Z,101273.41
2023-02-11T11:55:14.519Z,101254.72
2023-02-11T11:57:43.336Z,101249.59
2023-02-11T12:00:18.982Z,101251.25
2023-02-11T12:03:24.158Z,101245.31
2023-02-11T12:06:11.031Z,101240.19
2023-02-11T12:08:53.478Z,101252.84
2023-02-11T12:11:28.735Z,101240.09
2023-02-11T12:14:15.771Z,101241.72
2023-02-11T12:16:56.235Z,101246.81
2023-02-11T12:19:52.410Z,101256.94
2023-02-11T12:22:38.483Z,101244.28
2023-02-11T12:25:28.848Z,101251.00
2023-02-11T12:28:19.324Z,101248.47
2023-02-11T12:31:06.635Z,101251.91
2023-02-11T12:33:54.811Z,101249.38
2023-02-11T12:36:40.083Z,101252.75
2023-02-11T12:39:22.970Z,101262.09
2023-02-11T12:42:30.901Z,101257.84
2023-02-11T12:45:18.143Z,101256.16
2023-02-11T12:48:02.600Z,101251.94
2023-02-11T12:50:43.547Z,101253.66
2023-02-11T12:53:34.884Z,101251.13
2023-02-11T12:56:13.561Z,101250.31
2023-02-11T12:58:45.735Z,101251.13
2023-02-11T13:01:21.431Z,101250.31
2023-02-11T13:03:55.570Z,101254.50
2023-02-11T13:06:30.305Z,101254.50
2023-02-11T13:09:03.660Z,101242.66
2023-02-11T13:11:40.332Z,101241.81
2023-02-11T13:14:17.564Z,101235.91
2023-02-11T13:16:49.716Z,101241.81
2023-02-11T13:19:27.502Z,101241.00
2023-02-11T13:22:10.412Z,101248.66
2023-02-11T13:24:45.414Z,101244.44
2023-02-11T13:27:31.765Z,101241.03
2023-02-11T13:30:34.210Z,101235.94
2023-02-11T13:33:33.005Z,101237.72
2023-02-11T13:36:26.378Z,101232.63
2023-02-11T13:39:07.999Z,101228.41
2023-02-11T13:41:41.077Z,101225.00
2023-02-11T13:44:25.814Z,101225.00
2023-02-11T13:47:03.386Z,101223.28
2023-02-11T13:49:36.784Z,101229.22
2023-02-11T13:52:23.674Z,101220.75
2023-02-11T13:54:55.230Z,101234.31
2023-02-11T13:57:38.266Z,101227.53
2023-02-11T14:00:48.580Z,101228.41
2023-02-11T14:03:54.635Z,101231.81
2023-02-11T14:07:01.883Z,101229.25
2023-02-11T14:09:42.570Z,101230.94
2023-02-11T14:12:34.071Z,101233.50
2023-02-11T14:15:26.704Z,101232.66
2023-02-11T14:17:56.775Z,101230.13
2023-02-11T14:20:44.111Z,101236.03
2023-02-11T14:23:28.574Z,101235.22
2023-02-11T14:26:24.677Z,101227.56
2023-02-11T14:29:01.582Z,101238.63
2023-02-11T14:31:37.526Z,101233.53
2023-02-11T14:34:34.197Z,101246.19
2023-02-11T14:37:28.502Z,101239.44
2023-02-11T14:40:07.170Z,101238.63
2023-02-11T14:42:37.986Z,101234.34
2023-02-11T14:45:10.960Z,101229.25
2023-02-11T14:47:45.418Z,101236.03
2023-02-11T14:50:24.048Z,101236.03
2023-02-11T14:52:53.475Z,101241.13
2023-02-11T14:55:33.229Z,101249.59
2023-02-11T14:58:15.299Z,101252.97
2023-02-11T15:00:58.551Z,101249.59
2023-02-11T15:03:34.611Z,101242.78
2023-02-11T15:06:08.738Z,101239.44
2023-02-11T15:08:39.446Z,101243.63
2023-02-11T15:11:14.324Z,101247.00
2023-02-11T15:13:47.492Z,101247.00
2023-02-11T15:16:19.830Z,101255.47
2023-02-11T15:18:51.838Z,101255.44
2023-02-11T15:21:29.879Z,101265.59
2023-02-11T15:24:01.303Z,101254.66
2023-02-11T15:26:31.287Z,101263.09
2023-02-11T15:28:59.997Z,101264.81
2023-02-11T15:31:29.841Z,101267.31
2023-02-11T15:34:09.411Z,101269.00
2023-02-11T15:36:39.959Z,101261.38
2023-02-11T15:39:31.598Z,101255.44
2023-02-11T15:42:23.084Z,101272.44
2023-02-11T15:45:10.275Z,101275.03
2023-02-11T15:47:40.113Z,101271.63
2023-02-11T15:50:18.011Z,101272.44
2023-02-11T15:52:49.586Z,101280.91
2023-02-11T15:55:19.584Z,101272.44
2023-02-11T15:57:53.762Z,101281.72
2023-02-11T16:00:25.988Z,101271.53
2023-02-11T16:02:55.159Z,101280.84
2023-02-11T16:05:31.852Z,101274.94
2023-02-11T16:08:13.392Z,101274.09
2023-02-11T16:10:55.211Z,101276.63
2023-02-11T16:13:25.530Z,101278.34
2023-02-11T16:15:58.105Z,101282.56
2023-02-11T16:18:38.989Z,101275.81
2023-02-11T16:21:16.955Z,101271.53
2023-02-11T16:23:52.886Z,101275.81
2023-02-11T16:26:30.678Z,101275.78
2023-02-11T16:29:12.838Z,101280.06
2023-02-11T16:31:44.506Z,101274.13
2023-02-11T16:34:17.608Z,101280.06
2023-02-11T16:36:47.510Z,101274.97
2023-02-11T16:39:18.676Z,101271.53
2023-02-11T16:41:47.288Z,101273.28
2023-02-11T16:44:15.939Z,101279.19
2023-02-11T16:46:45.034Z,101285.97
2023-02-11T16:49:21.892Z,101285.13
2023-02-11T16:51:56.565Z,101296.16
2023-02-11T16:54:26.583Z,101297.00
2023-02-11T16:56:55.789Z,101301.25
2023-02-11T16:59:24.587Z,101298.72
2023-02-11T17:01:55.128Z,101300.41
2023-02-11T17:04:28.877Z,101302.97
2023-02-11T17:06:58.614Z,101294.47
2023-02-11T17:09:31.012Z,101298.72
2023-02-11T17:12:00.281Z,101304.63
2023-02-11T17:14:29.004Z,101308.03
2023-02-11T17:16:58.581Z,101303.81
2023-02-11T17:19:27.211Z,101302.97
2023-02-11T17:21:55.832Z,101294.47
2023-02-11T17:24:24.888Z,101296.16
2023-02-11T17:26:55.014Z,101312.22
2023-02-11T17:29:25.506Z,101302.06
2023-02-11T17:31:54.810Z,101300.38
2023-02-11T17:34:24.885Z,101316.47
2023-02-11T17:36:53.587Z,101313.91
2023-02-11T17:39:22.297Z,101314.78
2023-02-11T17:41:50.961Z,101314.78
2023-02-11T17:44:20.978Z,101311.38
2023-02-11T17:46:49.598Z,101320.72
2023-02-11T17:49:19.382Z,101321.53
2023-02-11T17:51:48.399Z,101325.78
2023-02-11T17:54:20.195Z,101325.81
2023-02-11T17:56:50.791Z,101320.75
2023-02-11T17:59:21.836Z,101330.94
2023-02-11T18:01:50.491Z,101332.59
2023-02-11T18:04:21.293Z,101342.78
2023-02-11T18:06:50.331Z,101346.19
2023-02-11T18:09:18.966Z,101345.31
2023-02-11T18:11:48.524Z,101336.88
2023-02-11T18:14:17.485Z,101340.28
2023-02-11T18:16:51.142Z,101341.13
2023-02-11T18:19:20.524Z,101342.84
2023-02-11T18:21:50.500Z,101341.13
2023-02-11T18:24:19.886Z,101340.31
2023-02-11T18:26:48.594Z,101338.63
2023-02-11T18:29:17.159Z,101336.97
2023-02-11T18:31:47.185Z,101343.75
2023-02-11T18:34:15.976Z,101340.38
2023-02-11T18:36:44.795Z,101343.78
2023-02-11T18:39:13.403Z,101342.06
2023-02-11T18:41:43.564Z,101342.06
2023-02-11T18:44:14.306Z,101343.78
2023-02-11T18:46:43.006Z,101345.50
2023-02-11T18:49:13.458Z,101343.00
2023-02-11T18:51:42.182Z,101351.44
2023-02-11T18:54:11.422Z,101347.19
2023-02-11T18:56:40.181Z,101353.13
2023-02-11T18:59:08.787Z,101342.97
2023-02-11T19:01:40.027Z,101345.50
2023-02-11T19:04:08.814Z,101342.97
2023-02-11T19:06:39.975Z,101342.09
2023-02-11T19:09:12.188Z,101350.59
2023-02-11T19:11:51.089Z,101346.31
2023-02-11T19:14:23.658Z,101335.34
2023-02-11T19:16:54.491Z,101336.97
2023-02-11T19:19:24.888Z,101328.53
2023-02-11T19:21:55.766Z,101339.53
2023-02-11T19:24:25.615Z,101337.84
2023-02-11T19:26:57.797Z,101341.22
2023-02-11T19:29:26.925Z,101345.47
2023-02-11T19:31:56.460Z,101342.06
2023-02-11T19:34:25.971Z,101343.75
2023-02-11T19:36:56.822Z,101348.84
2023-02-11T19:39:26.018Z,101359.88
2023-02-11T19:41:55.126Z,101343.75
2023-02-11T19:44:23.753Z,101348.88
2023-02-11T19:46:53.392Z,101349.72
2023-02-11T19:49:25.986Z,101351.44
2023-02-11T19:51:58.518Z,101354.84
2023-02-11T19:54:29.105Z,101356.53
2023-02-11T19:56:58.774Z,101352.31
2023-02-11T19:59:27.661Z,101354.84
2023-02-11T20:01:57.663Z,101355.72
2023-02-11T20:04:26.492Z,101367.56
2023-02-11T20:06:56.432Z,101363.34
2023-02-11T20:09:27.066Z,101359.09
2023-02-11T20:11:55.834Z,101362.50
2023-02-11T20:14:27.505Z,101366.78
2023-02-11T20:17:00.744Z,101363.34
2023-02-11T20:19:30.696Z,101368.41
2023-02-11T20:22:00.759Z,101376.94
2023-02-11T20:24:29.512Z,101371.00
2023-02-11T20:26:58.160Z,101369.31
2023-02-11T20:29:27.384Z,101370.16
2023-02-11T20:31:56.142Z,101371.84
2023-02-11T20:34:25.392Z,101364.22
2023-02-11T20:36:54.911Z,101371.84
2023-02-11T20:39:26.816Z,101370.16
2023-02-11T20:41:56.615Z,101366.81
2023-02-11T20:44:25.640Z,101369.34
2023-02-11T20:46:54.993Z,101369.31
2023-02-11T20:49:28.324Z,101373.56
2023-02-11T20:51:58.492Z,101370.16
2023-02-11T20:54:28.632Z,101365.09
2023-02-11T20:56:58.280Z,101359.16
2023-02-11T20:59:27.287Z,101360.81
2023-02-11T21:01:57.823Z,101365.94
2023-02-11T21:04:28.687Z,101364.22
2023-02-11T21:07:00.121Z,101362.53
2023-02-11T21:09:33.247Z,101354.91
2023-02-11T21:12:02.919Z,101371.03
2023-02-11T21:14:32.055Z,101366.78
2023-02-11T21:17:00.703Z,101361.72
2023-02-11T21:19:29.416Z,101366.81
2023-02-11T21:22:00.695Z,101371.03
2023-02-11T21:24:31.857Z,101366.81
2023-02-11T21:27:00.744Z,101372.75
2023-02-11T21:29:29.582Z,101374.44
2023-02-11T21:31:58.228Z,101373.59
2023-02-11T21:34:26.879Z,101373.59
2023-02-11T21:36:55.476Z,101371.06
2023-02-11T21:39:24.154Z,101372.75
2023-02-11T21:41:55.982Z,101375.31
2023-02-11T21:44:24.646Z,101381.25
2023-02-11T21:46:53.341Z,101385.50
2023-02-11T21:49:22.026Z,101385.50
2023-02-11T21:51:50.595Z,101386.31
2023-02-11T21:54:20.212Z,101388.03
2023-02-11T21:56:52.944Z,101388.88
2023-02-11T21:59:21.561Z,101409.19
2023-02-11T22:01:50.330Z,101409.22
2023-02-11T22:04:18.982Z,101416.81
2023-02-11T22:06:47.679Z,101403.28
2023-02-11T22:09:16.308Z,101399.91
2023-02-11T22:11:44.978Z,101404.16
2023-02-11T22:14:14.876Z,101402.47
2023-02-11T22:16:46.475Z,101401.63
2023-02-11T22:19:15.807Z,101398.25
2023-02-11T22:21:44.552Z,101394.03
2023-02-11T22:24:13.415Z,101394.88
2023-02-11T22:26:42.058Z,101394.03
2023-02-11T22:29:10.872Z,101383.03
2023-02-11T22:31:40.923Z,101377.09
2023-02-11T22:34:09.869Z,101390.66
2023-02-11T22:36:42.142Z,101395.75
2023-02-11T22:39:14.653Z,101394.94
2023-02-11T22:41:44.410Z,101392.44
2023-02-11T22:44:13.496Z,101386.50
2023-02-11T22:46:43.747Z,101391.56
2023-02-11T22:49:15.415Z,101388.16
2023-02-11T22:51:44.371Z,101389.00
2023-02-11T22:54:15.776Z,101376.28
2023-02-11T22:56:45.204Z,101396.59
2023-02-11T22:59:15.780Z,101405.94
2023-02-11T23:01:46.902Z,101398.31
2023-02-11T23:04:19.271Z,101404.22
2023-02-11T23:06:49.397Z,101395.75
2023-02-11T23:09:18.455Z,101403.38
2023-02-11T23:11:48.598Z,101409.31
2023-02-11T23:14:17.274Z,101416.09
2023-02-11T23:16:47.338Z,101397.50
2023-02-11T23:19:17.076Z,101407.69
2023-02-11T23:21:45.690Z,101411.91
2023-02-11T23:24:16.214Z,101416.16
2023-02-11T23:26:45.563Z,101421.25
2023-02-11T23:29:14.903Z,101418.72
2023-02-11T23:31:46.741Z,101422.94
2023-02-11T23:34:20.358Z,101427.19
2023-02-11T23:36:49.006Z,101433.13
2023-02-11T23:39:17.989Z,101431.44
2023-02-11T23:41:47.368Z,101428.03
2023-02-11T23:44:16.070Z,101431.47
2023-02-11T23:46:46.124Z,101434.03
2023-02-11T23:49:15.607Z,101422.16
2023-02-11T23:51:44.344Z,101425.56
2023-02-11T23:54:15.188Z,101434.88
2023-02-11T23:56:43.986Z,101429.78
2023-02-11T23:59:12.772Z,101426.41
